createdAt,value
2019-05-12T00:02:41.073Z,2.40
2019-05-12T00:07:44.754Z,1.80
2019-05-12T00:12:48.661Z,1.60
2019-05-12T00:17:52.414Z,1.37
2019-05-12T00:22:58.722Z,1.40
2019-05-12T00:28:02.395Z,1.27
2019-05-12T00:33:08.947Z,1.50
2019-05-12T00:38:11.930Z,1.50
2019-05-12T00:43:18.572Z,1.40
2019-05-12T00:48:21.790Z,1.70
2019-05-12T00:53:39.450Z,1.70
2019-05-12T00:58:31.161Z,1.50
2019-05-12T01:03:35.117Z,1.50
2019-05-12T01:08:38.784Z,1.63
2019-05-12T01:13:42.481Z,1.63
2019-05-12T01:18:47.983Z,1.57
2019-05-12T01:23:57.201Z,1.90
2019-05-12T01:28:58.080Z,1.20
2019-05-12T01:34:02.286Z,1.80
2019-05-12T01:39:08.509Z,1.67
2019-05-12T01:44:12.186Z,1.80
2019-05-12T01:49:18.483Z,1.47
2019-05-12T01:54:21.525Z,1.60
2019-05-12T01:59:25.230Z,1.67
2019-05-12T02:04:31.637Z,1.50
2019-05-12T02:09:38.698Z,1.40
2019-05-12T02:14:42.602Z,1.67
2019-05-12T02:19:48.059Z,1.60
2019-05-12T02:24:51.775Z,1.80
2019-05-12T02:29:55.455Z,1.60
2019-05-12T02:34:59.176Z,2.00
2019-05-12T02:40:04.802Z,2.00
2019-05-12T02:45:09.230Z,1.87
2019-05-12T02:50:14.541Z,2.60
2019-05-12T02:55:18.436Z,1.90
2019-05-12T03:00:24.196Z,1.93
2019-05-12T03:05:28.211Z,2.50
2019-05-12T03:10:35.317Z,2.20
2019-05-12T03:15:38.066Z,2.23
2019-05-12T03:20:45.205Z,2.47
2019-05-12T03:25:47.204Z,2.17
2019-05-12T03:30:57.001Z,1.90
2019-05-12T03:36:01.008Z,2.50
2019-05-12T03:41:01.684Z,2.57
2019-05-12T03:46:05.543Z,2.03
2019-05-12T03:51:09.316Z,2.53
2019-05-12T03:56:15.011Z,2.50
2019-05-12T04:01:18.864Z,2.30
2019-05-12T04:06:24.601Z,2.37
2019-05-12T04:11:28.206Z,2.07
2019-05-12T04:16:32.131Z,1.90
2019-05-12T04:21:35.968Z,1.97
2019-05-12T04:26:39.724Z,2.00
2019-05-12T04:31:44.309Z,1.90
2019-05-12T04:36:48.098Z,2.60
2019-05-12T04:41:54.987Z,2.07
2019-05-12T04:46:57.281Z,2.30
2019-05-12T04:52:00.974Z,1.63
2019-05-12T04:57:04.680Z,2.17
2019-05-12T05:02:08.406Z,1.73
2019-05-12T05:07:14.985Z,2.07
2019-05-12T05:12:18.074Z,2.30
2019-05-12T05:17:24.176Z,1.80
2019-05-12T05:22:27.417Z,1.80
2019-05-12T05:27:31.111Z,1.93
2019-05-12T05:32:34.794Z,1.73
2019-05-12T05:37:41.534Z,1.93
2019-05-12T05:42:44.181Z,2.30
2019-05-12T05:47:49.011Z,1.90
2019-05-12T05:52:54.263Z,1.73
2019-05-12T05:57:59.879Z,1.83
2019-05-12T06:03:05.257Z,2.03
2019-05-12T06:08:16.567Z,1.80
2019-05-12T06:13:14.470Z,1.67
2019-05-12T06:18:18.410Z,1.50
2019-05-12T06:23:23.913Z,1.53
2019-05-12T06:28:31.214Z,1.60
2019-05-12T06:33:36.053Z,2.00
2019-05-12T06:38:40.443Z,1.80
2019-05-12T06:43:45.431Z,1.80
2019-05-12T06:48:49.848Z,1.83
2019-05-12T06:53:53.563Z,2.13
2019-05-12T06:59:00.996Z,2.70
2019-05-12T07:04:08.255Z,2.90
2019-05-12T07:09:09.815Z,2.40
2019-05-12T07:14:22.295Z,2.30
2019-05-12T07:19:22.912Z,2.77
2019-05-12T07:24:25.497Z,2.70
2019-05-12T07:29:29.155Z,2.43
2019-05-12T07:34:33.480Z,2.63
2019-05-12T07:39:45.342Z,2.40
2019-05-12T07:44:45.058Z,2.63
2019-05-12T07:49:49.019Z,2.47
2019-05-12T07:54:55.821Z,2.07
2019-05-12T07:59:58.051Z,2.07
2019-05-12T08:05:03.890Z,2.50
2019-05-12T08:10:17.721Z,2.33
2019-05-12T08:15:14.019Z,1.80
2019-05-12T08:20:18.248Z,2.53
2019-05-12T08:25:24.830Z,2.00
2019-05-12T08:30:34.749Z,2.00
2019-05-12T08:35:38.866Z,1.90
2019-05-12T08:40:46.523Z,2.00
2019-05-12T08:45:48.379Z,2.27
2019-05-12T08:50:54.460Z,2.10
2019-05-12T08:55:57.713Z,2.17
2019-05-12T09:01:01.468Z,2.00
2019-05-12T09:06:09.358Z,2.10
2019-05-12T09:11:10.974Z,1.70
2019-05-12T09:16:14.637Z,1.90
2019-05-12T09:21:18.318Z,1.47
2019-05-12T09:26:26.710Z,1.43
2019-05-12T09:31:29.563Z,1.10
2019-05-12T09:36:34.019Z,1.47
2019-05-12T09:41:42.657Z,1.73
2019-05-12T09:46:44.006Z,1.40
2019-05-12T09:51:47.799Z,1.73
2019-05-12T09:56:57.817Z,1.80
2019-05-12T10:01:57.005Z,1.37
2019-05-12T10:07:00.890Z,1.60
2019-05-12T10:12:05.575Z,1.20
2019-05-12T10:17:09.435Z,1.45
2019-05-12T10:22:13.655Z,1.67
2019-05-12T10:27:21.128Z,1.25
2019-05-12T10:32:24.029Z,1.42
2019-05-12T10:37:29.439Z,1.05
2019-05-12T10:42:33.722Z,1.00
2019-05-12T10:47:37.508Z,1.10
2019-05-12T10:52:41.206Z,1.20
2019-05-12T10:57:47.252Z,1.00
2019-05-12T11:02:50.320Z,1.22
2019-05-12T11:07:54.077Z,0.98
2019-05-12T11:12:59.238Z,1.17
2019-05-12T11:18:12.427Z,1.00
2019-05-12T11:23:16.104Z,1.47
2019-05-12T11:28:20.009Z,0.88
2019-05-12T11:33:23.907Z,1.30
2019-05-12T11:38:27.737Z,1.02
2019-05-12T11:43:33.722Z,1.35
2019-05-12T11:48:40.454Z,0.95
2019-05-12T11:53:44.487Z,1.65
2019-05-12T11:58:51.518Z,0.90
2019-05-12T12:03:54.658Z,0.88
2019-05-12T12:09:00.335Z,1.00
2019-05-12T12:14:06.378Z,1.20
2019-05-12T12:19:09.572Z,0.80
2019-05-12T12:24:13.495Z,0.88
2019-05-12T12:29:20.750Z,1.07
2019-05-12T12:34:29.941Z,1.15
2019-05-12T12:39:31.130Z,0.68
2019-05-12T12:44:37.431Z,1.02
2019-05-12T12:49:55.540Z,0.62
2019-05-12T12:55:05.124Z,1.00
2019-05-12T13:00:28.793Z,1.10
2019-05-12T13:05:24.705Z,1.00
2019-05-12T13:21:19.445Z,1.10
2019-05-12T13:32:00.325Z,1.10
2019-05-12T13:37:23.986Z,0.75
2019-05-12T13:42:30.395Z,1.07
2019-05-12T13:47:37.691Z,0.90
2019-05-12T13:52:38.833Z,0.98
2019-05-12T13:57:52.289Z,0.82
2019-05-12T14:03:03.542Z,1.30
2019-05-12T14:08:11.294Z,0.70
2019-05-12T14:13:15.391Z,0.78
2019-05-12T14:18:20.817Z,0.78
2019-05-12T14:23:24.704Z,0.70
2019-05-12T14:28:28.739Z,0.70
2019-05-12T14:33:39.299Z,0.55
2019-05-12T14:38:42.104Z,0.60
2019-05-12T14:43:47.939Z,0.72
2019-05-12T14:48:55.806Z,0.90
2019-05-12T14:54:00.354Z,0.60
2019-05-12T14:59:34.974Z,0.65
2019-05-12T15:05:05.625Z,0.78
2019-05-12T15:10:14.373Z,0.62
2019-05-12T15:15:24.258Z,0.80
2019-05-12T15:20:29.375Z,0.93
2019-05-12T15:25:37.229Z,0.68
2019-05-12T15:30:43.444Z,0.90
2019-05-12T15:35:46.725Z,0.95
2019-05-12T15:40:50.443Z,0.85
2019-05-12T15:45:58.100Z,1.20
2019-05-12T15:51:05.406Z,1.00
2019-05-12T15:56:14.767Z,0.83
2019-05-12T16:01:13.890Z,1.05
2019-05-12T16:06:16.955Z,1.10
2019-05-12T16:11:20.722Z,1.20
2019-05-12T16:16:24.749Z,1.67
2019-05-12T16:21:28.556Z,1.20
2019-05-12T16:26:33.454Z,1.00
2019-05-12T16:31:39.536Z,0.90
2019-05-12T16:36:47.519Z,1.10
2019-05-12T16:41:48.485Z,0.97
2019-05-12T16:46:53.463Z,0.93
2019-05-12T16:51:57.226Z,1.10
2019-05-12T16:57:06.449Z,1.07
2019-05-12T17:02:09.869Z,1.00
2019-05-12T17:07:18.906Z,0.80
2019-05-12T17:12:17.588Z,1.57
2019-05-12T17:17:21.438Z,1.30
2019-05-12T17:22:25.250Z,0.83
2019-05-12T17:27:29.322Z,0.90
2019-05-12T17:32:33.381Z,0.83
2019-05-12T17:37:41.343Z,0.90
2019-05-12T17:42:45.135Z,1.30
2019-05-12T17:47:49.127Z,1.10
2019-05-12T17:52:56.905Z,1.00
2019-05-12T17:57:58.546Z,1.07
2019-05-12T18:03:21.599Z,1.00
2019-05-12T18:08:24.102Z,0.80
2019-05-12T18:13:34.404Z,0.70
2019-05-12T18:18:38.658Z,1.10
2019-05-12T18:23:43.645Z,1.00
2019-05-12T18:28:47.429Z,0.83
2019-05-12T18:34:01.060Z,1.00
2019-05-12T18:39:11.646Z,1.10
2019-05-12T18:44:18.324Z,0.80
2019-05-12T18:49:19.782Z,0.80
2019-05-12T18:54:24.420Z,0.70
2019-05-12T18:59:28.525Z,1.00
2019-05-12T19:04:33.997Z,0.97
2019-05-12T19:09:37.630Z,0.90
2019-05-12T19:14:43.504Z,0.83
2019-05-12T19:19:52.095Z,0.87
2019-05-12T19:24:56.660Z,1.27
2019-05-12T19:29:59.854Z,0.80
2019-05-12T19:35:09.438Z,0.90
2019-05-12T19:40:16.626Z,0.73
2019-05-12T19:45:21.648Z,0.70
2019-05-12T19:50:23.513Z,0.90
2019-05-12T19:55:27.230Z,0.77
2019-05-12T20:00:33.513Z,1.00
2019-05-12T20:05:37.425Z,0.80
2019-05-12T20:10:44.785Z,0.70
2019-05-12T20:15:46.994Z,0.80
2019-05-12T20:20:50.786Z,1.10
2019-05-12T20:25:54.511Z,0.80
2019-05-12T20:31:03.859Z,0.73
2019-05-12T20:36:04.243Z,0.73
2019-05-12T20:41:10.916Z,0.70
2019-05-12T20:46:21.805Z,0.70
2019-05-12T20:51:21.213Z,0.70
2019-05-12T20:56:33.942Z,1.10
2019-05-12T21:01:40.910Z,1.10
2019-05-12T21:06:48.363Z,0.70
2019-05-12T21:11:51.079Z,1.47
2019-05-12T21:16:55.071Z,0.70
2019-05-12T21:21:59.338Z,0.63
2019-05-12T21:27:03.891Z,0.70
2019-05-12T21:32:12.290Z,0.70
2019-05-12T21:37:19.237Z,0.90
2019-05-12T21:42:25.181Z,0.80
2019-05-12T21:47:36.395Z,1.00
2019-05-12T21:52:39.054Z,0.70
2019-05-12T21:57:40.462Z,0.90
2019-05-12T22:02:44.467Z,0.80
2019-05-12T22:07:48.291Z,0.90
2019-05-12T22:12:54.423Z,0.97
2019-05-12T22:18:04.231Z,0.63
2019-05-12T22:23:11.549Z,0.70
2019-05-12T22:28:13.507Z,0.70
2019-05-12T22:33:24.124Z,0.60
2019-05-12T22:38:25.794Z,0.90
2019-05-12T22:43:31.355Z,1.00
2019-05-12T22:48:37.401Z,0.77
2019-05-12T22:53:40.709Z,0.90
2019-05-12T22:58:46.198Z,1.00
2019-05-12T23:03:51.431Z,0.60
2019-05-12T23:08:58.505Z,0.80
2019-05-12T23:14:03.964Z,0.83
2019-05-12T23:19:12.009Z,0.70
2019-05-12T23:24:14.123Z,0.80
2019-05-12T23:29:20.603Z,0.70
2019-05-12T23:34:23.788Z,0.90
2019-05-12T23:39:32.559Z,0.77
2019-05-12T23:44:33.492Z,0.80
2019-05-12T23:49:37.505Z,1.00
2019-05-12T23:54:41.209Z,0.60
2019-05-12T23:59:44.922Z,0.80
